This is the latest recevied weather packets stored in our database for station/object W6ORV. If no packets are shown the sender has not sent any weather packets the latest 10 day(s).
| Time | Temp. | Humidity | Pressure | Rain* | Wind** | Luminosity | Snow |
|---|---|---|---|---|---|---|---|
| 1777674388 | 30.56° C | 35% | 4296.3 hPa | 0 mm | - | 667 W/m² | - |
| 1777674080 | 30.56° C | 37% | 4296.5 hPa | 0 mm | - | 670 W/m² | - |
| 1777673776 | 30° C | 36% | 4296.3 hPa | 0 mm | - | 684 W/m² | - |
| 1777673473 | 30° C | 38% | 4296.4 hPa | 0 mm | - | 626 W/m² | - |
| 1777673171 | 30° C | 35% | 4296.4 hPa | 0 mm | - | 718 W/m² | - |
| 1777672868 | 30.56° C | 33% | 4296.3 hPa | 0 mm | - | 707 W/m² | - |
| 1777672564 | 30.56° C | 34% | 4296.6 hPa | 0 mm | - | 694 W/m² | - |
| 1777672259 | 31.11° C | 33% | 4296.9 hPa | 0 mm | - | 701 W/m² | - |
| 1777671954 | 30.56° C | 33% | 4297 hPa | 0 mm | - | 709 W/m² | - |
| 1777671650 | 30.56° C | 30% | 4296.9 hPa | 0 mm | - | 733 W/m² | - |
| 1777671347 | 30° C | 33% | 4296.9 hPa | 0 mm | - | 724 W/m² | - |
| 1777671044 | 30.56° C | 32% | 4296.8 hPa | 0 mm | - | 738 W/m² | - |
| 1777670740 | 30.56° C | 31% | 4297.2 hPa | 0 mm | - | 742 W/m² | - |
| 1777670437 | 30.56° C | 32% | 4297 hPa | 0 mm | - | 751 W/m² | - |
| 1777670134 | 31.11° C | 32% | 4297.1 hPa | 0 mm | - | 753 W/m² | - |
| 1777669832 | 30.56° C | 32% | 4297.1 hPa | 0 mm | - | 760 W/m² | - |
| 1777669527 | 30° C | 31% | 4297.1 hPa | 0 mm | - | 757 W/m² | - |
| 1777669225 | 28.89° C | 34% | 4297.1 hPa | 0 mm | - | 746 W/m² | - |
| 1777668921 | 29.44° C | 35% | 4297.4 hPa | 0 mm | - | 729 W/m² | - |
| 1777668619 | 28.89° C | 34% | 4297.3 hPa | 0 mm | - | 705 W/m² | - |
| 1777668315 | 28.89° C | 35% | 4297.5 hPa | 0 mm | - | 703 W/m² | - |
| 1777668011 | 29.44° C | 35% | 4297.6 hPa | 0 mm | - | 709 W/m² | - |
| 1777667708 | 30° C | 34% | 4297.4 hPa | 0 mm | - | 737 W/m² | - |
| 1777667406 | 28.89° C | 36% | 4297.5 hPa | 0 mm | - | 757 W/m² | - |
| 1777667102 | 28.89° C | 37% | 4297.6 hPa | 0 mm | - | 717 W/m² | - |
* Rain latest hour (hover to see other rain measurements)
** Current wind speed in m/s (hover to see current wind gust speed)